createdAt,value
2018-01-19T00:00:01.008Z,995.56
2018-01-19T00:01:01.053Z,995.58
2018-01-19T00:02:00.982Z,995.61
2018-01-19T00:03:00.990Z,995.61
2018-01-19T00:04:01.102Z,995.62
2018-01-19T00:05:00.997Z,995.64
2018-01-19T00:06:01.000Z,995.65
2018-01-19T00:07:01.021Z,995.68
2018-01-19T00:08:01.011Z,995.67
2018-01-19T00:09:01.003Z,995.69
2018-01-19T00:10:01.410Z,995.70
2018-01-19T00:11:01.027Z,995.73
2018-01-19T00:12:01.029Z,995.71
2018-01-19T00:13:01.066Z,995.74
2018-01-19T00:14:01.034Z,995.74
2018-01-19T00:15:01.045Z,995.75
2018-01-19T00:16:01.055Z,995.72
2018-01-19T00:17:01.072Z,995.71
2018-01-19T00:18:01.071Z,995.70
2018-01-19T00:19:01.086Z,995.71
2018-01-19T00:20:01.049Z,995.71
2018-01-19T00:21:01.108Z,995.73
2018-01-19T00:22:01.059Z,995.73
2018-01-19T00:23:01.074Z,995.73
2018-01-19T00:24:01.070Z,995.73
2018-01-19T00:25:01.083Z,995.72
2018-01-19T00:26:01.077Z,995.75
2018-01-19T00:27:01.099Z,995.74
2018-01-19T00:28:01.087Z,995.72
2018-01-19T00:29:01.221Z,995.74
2018-01-19T00:30:01.102Z,995.75
2018-01-19T00:31:01.102Z,995.74
2018-01-19T00:32:01.111Z,995.72
2018-01-19T00:33:01.113Z,995.71
2018-01-19T00:34:01.121Z,995.70
2018-01-19T00:35:01.121Z,995.74
2018-01-19T00:36:01.126Z,995.75
2018-01-19T00:37:01.134Z,995.71
2018-01-19T00:38:01.141Z,995.66
2018-01-19T00:39:01.145Z,995.74
2018-01-19T00:40:01.160Z,995.76
2018-01-19T00:41:01.178Z,995.75
2018-01-19T00:42:01.186Z,995.74
2018-01-19T00:43:01.177Z,995.68
2018-01-19T00:44:01.155Z,995.71
2018-01-19T00:45:01.161Z,995.68
2018-01-19T00:46:01.165Z,995.63
2018-01-19T00:47:01.170Z,995.61
2018-01-19T00:48:01.192Z,995.61
2018-01-19T00:49:01.204Z,995.60
2018-01-19T00:50:01.192Z,995.61
2018-01-19T00:51:01.200Z,995.60
2018-01-19T00:52:01.202Z,995.64
2018-01-19T00:53:01.216Z,995.70
2018-01-19T00:54:01.228Z,995.66
2018-01-19T00:55:01.229Z,995.67
2018-01-19T00:56:01.228Z,995.71
2018-01-19T00:57:01.224Z,995.72
2018-01-19T00:58:01.328Z,995.72
2018-01-19T00:59:01.240Z,995.70
2018-01-19T01:00:01.283Z,995.75
2018-01-19T01:01:01.268Z,995.76
2018-01-19T01:02:01.246Z,995.76
2018-01-19T01:03:01.252Z,995.75
2018-01-19T01:04:01.262Z,995.74
2018-01-19T01:05:01.269Z,995.73
2018-01-19T01:06:01.293Z,995.75
2018-01-19T01:07:01.266Z,995.75
2018-01-19T01:08:01.304Z,995.77
2018-01-19T01:09:01.314Z,995.74
2018-01-19T01:10:01.349Z,995.74
2018-01-19T01:11:01.313Z,995.73
2018-01-19T01:12:01.290Z,995.75
2018-01-19T01:13:01.329Z,995.80
2018-01-19T01:14:01.309Z,995.77
2018-01-19T01:15:01.299Z,995.78
2018-01-19T01:16:01.325Z,995.79
2018-01-19T01:17:01.349Z,995.82
2018-01-19T01:18:01.345Z,995.78
2018-01-19T01:19:01.320Z,995.84
2018-01-19T01:20:01.315Z,995.88
2018-01-19T01:21:01.330Z,995.86
2018-01-19T01:22:01.353Z,995.84
2018-01-19T01:23:01.336Z,995.90
2018-01-19T01:24:01.339Z,995.89
2018-01-19T01:25:01.382Z,995.85
2018-01-19T01:26:01.368Z,995.89
2018-01-19T01:27:01.359Z,995.85
2018-01-19T01:28:01.380Z,995.90
2018-01-19T01:29:01.401Z,995.88
2018-01-19T01:30:01.375Z,995.86
2018-01-19T01:31:01.369Z,995.85
2018-01-19T01:32:01.380Z,995.84
2018-01-19T01:33:01.382Z,995.80
2018-01-19T01:34:01.379Z,995.82
2018-01-19T01:35:01.379Z,995.80
2018-01-19T01:36:01.411Z,995.80
2018-01-19T01:37:01.454Z,995.82
2018-01-19T01:38:01.398Z,995.83
2018-01-19T01:39:01.411Z,995.83
2018-01-19T01:40:01.415Z,995.86
2018-01-19T01:41:01.440Z,995.81
2018-01-19T01:42:01.420Z,995.80
2018-01-19T01:43:01.422Z,995.78
2018-01-19T01:44:01.417Z,995.81
2018-01-19T01:45:01.429Z,995.82
2018-01-19T01:46:01.448Z,995.86
2018-01-19T01:47:01.435Z,995.83
2018-01-19T01:48:01.445Z,995.85
2018-01-19T01:49:01.503Z,995.85
2018-01-19T01:50:01.487Z,995.88
2018-01-19T01:51:01.465Z,995.85
2018-01-19T01:52:01.462Z,995.85
2018-01-19T01:53:01.552Z,995.84
2018-01-19T01:54:01.479Z,995.82
2018-01-19T01:55:01.486Z,995.77
2018-01-19T01:56:01.483Z,995.79
2018-01-19T01:57:01.486Z,995.77
2018-01-19T01:58:01.500Z,995.78
2018-01-19T01:59:01.527Z,995.80
2018-01-19T02:00:01.564Z,995.78
2018-01-19T02:01:01.537Z,995.80
2018-01-19T02:02:01.563Z,995.81
2018-01-19T02:03:01.502Z,995.79
2018-01-19T02:04:01.558Z,995.81
2018-01-19T02:05:01.536Z,995.76
2018-01-19T02:06:01.525Z,995.77
2018-01-19T02:07:01.526Z,995.78
2018-01-19T02:08:01.542Z,995.75
2018-01-19T02:09:01.602Z,995.81
2018-01-19T02:10:01.573Z,995.79
2018-01-19T02:11:01.553Z,995.82
2018-01-19T02:12:01.550Z,995.80
2018-01-19T02:13:01.551Z,995.80
2018-01-19T02:14:01.561Z,995.77
2018-01-19T02:15:01.568Z,995.77
2018-01-19T02:16:01.579Z,995.74
2018-01-19T02:17:01.578Z,995.72
2018-01-19T02:18:01.611Z,995.74
2018-01-19T02:19:01.611Z,995.73
2018-01-19T02:20:01.590Z,995.77
2018-01-19T02:21:01.599Z,995.73
2018-01-19T02:22:01.585Z,995.77
2018-01-19T02:23:01.598Z,995.82
2018-01-19T02:24:01.664Z,995.80
2018-01-19T02:25:01.602Z,995.79
2018-01-19T02:26:01.613Z,995.81
2018-01-19T02:27:01.622Z,995.79
2018-01-19T02:28:01.642Z,995.78
2018-01-19T02:29:01.638Z,995.77
2018-01-19T02:30:01.810Z,995.81
2018-01-19T02:31:01.643Z,995.82
2018-01-19T02:32:01.643Z,995.80
2018-01-19T02:33:01.637Z,995.79
2018-01-19T02:34:01.643Z,995.83
2018-01-19T02:35:01.659Z,995.82
2018-01-19T02:36:01.661Z,995.89
2018-01-19T02:37:01.659Z,995.89
2018-01-19T02:38:01.685Z,995.87
2018-01-19T02:39:01.686Z,995.92
2018-01-19T02:40:01.686Z,995.91
2018-01-19T02:41:01.697Z,995.97
2018-01-19T02:42:01.689Z,995.97
2018-01-19T02:43:01.706Z,995.95
2018-01-19T02:44:01.696Z,995.94
2018-01-19T02:45:01.734Z,995.92
2018-01-19T02:46:01.743Z,995.97
2018-01-19T02:47:01.716Z,995.98
2018-01-19T02:48:01.711Z,996.03
2018-01-19T02:49:01.736Z,995.99
2018-01-19T02:50:01.755Z,996.02
2018-01-19T02:51:01.733Z,996.00
2018-01-19T02:52:01.736Z,996.02
2018-01-19T02:53:01.753Z,996.05
2018-01-19T02:54:01.754Z,996.00
2018-01-19T02:55:01.750Z,995.98
2018-01-19T02:56:01.765Z,996.00
2018-01-19T02:57:01.788Z,995.97
2018-01-19T02:58:01.762Z,995.99
2018-01-19T02:59:01.760Z,996.01
2018-01-19T03:00:01.786Z,995.97
2018-01-19T03:01:01.775Z,995.97
2018-01-19T03:02:01.804Z,995.96
2018-01-19T03:03:01.827Z,995.99
2018-01-19T03:04:01.780Z,995.96
2018-01-19T03:05:01.812Z,995.99
2018-01-19T03:06:01.898Z,995.97
2018-01-19T03:07:01.783Z,996.02
2018-01-19T03:08:01.799Z,996.01
2018-01-19T03:09:01.875Z,996.04
2018-01-19T03:10:02.124Z,996.06
2018-01-19T03:11:01.850Z,996.08
2018-01-19T03:12:01.823Z,996.08
2018-01-19T03:13:01.826Z,996.12
2018-01-19T03:14:01.832Z,996.13
2018-01-19T03:15:01.839Z,996.08
2018-01-19T03:16:01.839Z,996.11
2018-01-19T03:17:01.831Z,996.07
2018-01-19T03:18:01.857Z,996.08
2018-01-19T03:19:01.841Z,996.10
2018-01-19T03:20:01.854Z,996.06
2018-01-19T03:21:01.857Z,996.06
2018-01-19T03:22:01.871Z,996.07
2018-01-19T03:23:01.887Z,996.09
2018-01-19T03:24:01.893Z,996.11
2018-01-19T03:25:01.867Z,996.10
2018-01-19T03:26:01.875Z,996.14
2018-01-19T03:27:01.894Z,996.13
2018-01-19T03:28:01.887Z,996.20
2018-01-19T03:29:01.893Z,996.13
2018-01-19T03:30:01.935Z,996.15
2018-01-19T03:31:01.920Z,996.15
2018-01-19T03:32:01.912Z,996.12
2018-01-19T03:33:01.927Z,996.15
2018-01-19T03:34:01.943Z,996.18
2018-01-19T03:35:01.929Z,996.16
2018-01-19T03:36:01.921Z,996.22
2018-01-19T03:37:01.922Z,996.19
2018-01-19T03:38:01.957Z,996.20
2018-01-19T03:39:01.961Z,996.28
2018-01-19T03:40:01.945Z,996.28
2018-01-19T03:41:01.959Z,996.25
2018-01-19T03:42:01.965Z,996.30
2018-01-19T03:43:01.959Z,996.31
2018-01-19T03:44:01.967Z,996.32
2018-01-19T03:45:01.971Z,996.37
2018-01-19T03:46:01.984Z,996.34
2018-01-19T03:47:02.012Z,996.32
2018-01-19T03:48:01.985Z,996.32
2018-01-19T03:49:01.981Z,996.33
2018-01-19T03:50:02.060Z,996.34
2018-01-19T03:51:02.000Z,996.34
2018-01-19T03:52:01.995Z,996.33
2018-01-19T03:53:02.005Z,996.38
2018-01-19T03:54:02.026Z,996.35
2018-01-19T03:55:02.081Z,996.39
2018-01-19T03:56:02.046Z,996.41
2018-01-19T03:57:02.613Z,996.41
2018-01-19T03:58:02.033Z,996.41
2018-01-19T03:59:02.040Z,996.44
2018-01-19T04:00:02.051Z,996.41
2018-01-19T04:01:02.034Z,996.47
2018-01-19T04:02:02.101Z,996.45
2018-01-19T04:03:02.050Z,996.48
2018-01-19T04:04:02.057Z,996.50
2018-01-19T04:05:02.059Z,996.51
2018-01-19T04:06:02.064Z,996.53
2018-01-19T04:07:02.067Z,996.53
2018-01-19T04:08:02.103Z,996.54
2018-01-19T04:09:02.098Z,996.60
2018-01-19T04:10:02.095Z,996.57
2018-01-19T04:11:02.078Z,996.56
2018-01-19T04:12:02.091Z,996.61
2018-01-19T04:13:02.099Z,996.59
2018-01-19T04:14:02.116Z,996.61
2018-01-19T04:15:02.295Z,996.62
2018-01-19T04:16:02.110Z,996.59
2018-01-19T04:17:02.122Z,996.58
2018-01-19T04:18:02.122Z,996.64
2018-01-19T04:19:02.113Z,996.74
2018-01-19T04:20:02.136Z,996.70
2018-01-19T04:21:02.129Z,996.71
2018-01-19T04:22:02.132Z,996.81
2018-01-19T04:23:02.130Z,996.76
2018-01-19T04:24:02.140Z,996.79
2018-01-19T04:25:02.143Z,996.80
2018-01-19T04:26:02.156Z,996.87
2018-01-19T04:27:02.150Z,996.87
2018-01-19T04:28:02.175Z,996.82
2018-01-19T04:29:02.171Z,996.88
2018-01-19T04:30:02.244Z,996.85
2018-01-19T04:31:02.183Z,996.87
2018-01-19T04:32:02.183Z,996.87
2018-01-19T04:33:02.185Z,996.84
2018-01-19T04:34:02.194Z,996.86
2018-01-19T04:35:02.195Z,996.90
2018-01-19T04:36:02.196Z,996.93
2018-01-19T04:37:02.199Z,996.96
2018-01-19T04:38:02.292Z,996.93
2018-01-19T04:39:02.212Z,996.96
2018-01-19T04:40:02.215Z,996.99
2018-01-19T04:41:02.218Z,997.01
2018-01-19T04:42:02.221Z,996.97
2018-01-19T04:43:02.225Z,996.94
2018-01-19T04:44:02.224Z,996.94
2018-01-19T04:45:02.235Z,996.92
2018-01-19T04:46:02.237Z,996.97
2018-01-19T04:47:02.254Z,996.99
2018-01-19T04:48:02.250Z,997.02
2018-01-19T04:49:02.263Z,996.99
2018-01-19T04:50:02.262Z,996.99
2018-01-19T04:51:02.260Z,997.00
2018-01-19T04:52:02.290Z,997.01
2018-01-19T04:53:02.266Z,997.06
2018-01-19T04:54:02.261Z,997.08
2018-01-19T04:55:02.272Z,997.03
2018-01-19T04:56:02.311Z,997.09
2018-01-19T04:57:02.287Z,997.10
2018-01-19T04:58:02.282Z,997.11
2018-01-19T04:59:02.298Z,997.13
2018-01-19T05:00:02.292Z,997.14
2018-01-19T05:01:02.291Z,997.16
2018-01-19T05:02:02.304Z,997.19
2018-01-19T05:03:02.308Z,997.16
2018-01-19T05:04:02.312Z,997.16
2018-01-19T05:05:02.312Z,997.17
2018-01-19T05:06:02.316Z,997.19
2018-01-19T05:07:02.328Z,997.16
2018-01-19T05:08:02.331Z,997.17
2018-01-19T05:09:02.399Z,997.23
2018-01-19T05:10:02.369Z,997.27
2018-01-19T05:11:02.332Z,997.28
2018-01-19T05:12:02.342Z,997.26
2018-01-19T05:13:02.349Z,997.28
2018-01-19T05:14:02.351Z,997.33
2018-01-19T05:15:02.352Z,997.30
2018-01-19T05:16:02.358Z,997.30
2018-01-19T05:17:02.359Z,997.33
2018-01-19T05:18:02.374Z,997.35
2018-01-19T05:19:02.407Z,997.34
2018-01-19T05:20:02.377Z,997.39
2018-01-19T05:21:02.374Z,997.34
2018-01-19T05:22:02.394Z,997.36
2018-01-19T05:23:02.399Z,997.38
2018-01-19T05:24:02.392Z,997.38
2018-01-19T05:25:02.399Z,997.37
2018-01-19T05:26:02.398Z,997.42
2018-01-19T05:27:02.399Z,997.38
2018-01-19T05:28:02.410Z,997.43
2018-01-19T05:29:02.410Z,997.40
2018-01-19T05:30:02.437Z,997.40
2018-01-19T05:31:02.423Z,997.42
2018-01-19T05:32:02.435Z,997.40
2018-01-19T05:33:02.437Z,997.39
2018-01-19T05:34:02.435Z,997.44
2018-01-19T05:35:02.456Z,997.48
2018-01-19T05:36:02.455Z,997.37
2018-01-19T05:37:02.451Z,997.41
2018-01-19T05:38:02.457Z,997.40
2018-01-19T05:39:02.447Z,997.45
2018-01-19T05:40:02.460Z,997.45
2018-01-19T05:41:02.456Z,997.45
2018-01-19T05:42:02.465Z,997.48
2018-01-19T05:43:02.466Z,997.47
2018-01-19T05:44:02.471Z,997.45
2018-01-19T05:45:02.484Z,997.52
2018-01-19T05:46:02.489Z,997.50
2018-01-19T05:47:02.483Z,997.50
2018-01-19T05:48:02.503Z,997.52
2018-01-19T05:49:02.499Z,997.53
2018-01-19T05:50:02.616Z,997.58
2018-01-19T05:51:02.509Z,997.52
2018-01-19T05:52:02.505Z,997.56
2018-01-19T05:53:02.517Z,997.58
2018-01-19T05:54:02.521Z,997.60
2018-01-19T05:55:02.544Z,997.57
2018-01-19T05:56:02.527Z,997.59
2018-01-19T05:57:02.532Z,997.60
2018-01-19T05:58:02.544Z,997.60
2018-01-19T05:59:02.538Z,997.60
2018-01-19T06:00:02.538Z,997.67
2018-01-19T06:01:02.544Z,997.59
2018-01-19T06:02:02.554Z,997.69
2018-01-19T06:03:02.554Z,997.68
2018-01-19T06:04:02.567Z,997.66
2018-01-19T06:05:02.557Z,997.71
2018-01-19T06:06:02.583Z,997.73
2018-01-19T06:07:02.581Z,997.72
2018-01-19T06:08:02.591Z,997.71
2018-01-19T06:09:02.574Z,997.73
2018-01-19T06:10:02.581Z,997.74
2018-01-19T06:11:02.589Z,997.78
2018-01-19T06:12:02.596Z,997.73
2018-01-19T06:13:02.667Z,997.75
2018-01-19T06:14:02.598Z,997.80
2018-01-19T06:15:02.601Z,997.76
2018-01-19T06:16:02.634Z,997.79
2018-01-19T06:17:02.611Z,997.81
2018-01-19T06:18:02.627Z,997.80
2018-01-19T06:19:02.611Z,997.90
2018-01-19T06:20:02.618Z,997.85
2018-01-19T06:21:02.622Z,997.90
2018-01-19T06:22:02.626Z,997.90
2018-01-19T06:23:02.634Z,997.93
2018-01-19T06:24:02.635Z,997.92
2018-01-19T06:25:02.640Z,997.91
2018-01-19T06:26:02.657Z,997.92
2018-01-19T06:27:02.653Z,997.96
2018-01-19T06:28:02.663Z,997.98
2018-01-19T06:29:02.664Z,997.97
2018-01-19T06:30:02.673Z,998.02
2018-01-19T06:31:02.671Z,998.02
2018-01-19T06:32:02.677Z,998.04
2018-01-19T06:33:02.669Z,998.00
2018-01-19T06:34:02.681Z,998.02
2018-01-19T06:35:02.701Z,998.09
2018-01-19T06:36:02.698Z,998.10
2018-01-19T06:37:02.703Z,998.08
2018-01-19T06:38:02.696Z,998.10
2018-01-19T06:39:02.692Z,998.13
2018-01-19T06:40:02.706Z,998.13
2018-01-19T06:41:02.742Z,998.08
2018-01-19T06:42:02.717Z,998.15
2018-01-19T06:43:02.739Z,998.13
2018-01-19T06:44:02.746Z,998.17
2018-01-19T06:45:02.714Z,998.21
2018-01-19T06:46:02.725Z,998.20
2018-01-19T06:47:02.725Z,998.19
2018-01-19T06:48:02.744Z,998.24
2018-01-19T06:49:02.736Z,998.23
2018-01-19T06:50:02.752Z,998.26
2018-01-19T06:51:02.755Z,998.25
2018-01-19T06:52:02.744Z,998.27
2018-01-19T06:53:02.750Z,998.24
2018-01-19T06:54:02.834Z,998.25
2018-01-19T06:55:02.770Z,998.30
2018-01-19T06:56:02.788Z,998.27
2018-01-19T06:57:02.767Z,998.34
2018-01-19T06:58:02.788Z,998.32
2018-01-19T06:59:02.791Z,998.34
2018-01-19T07:00:02.783Z,998.33
2018-01-19T07:01:02.803Z,998.37
2018-01-19T07:02:02.808Z,998.39
2018-01-19T07:03:02.815Z,998.40
2018-01-19T07:04:02.930Z,998.43
2018-01-19T07:05:02.808Z,998.38
2018-01-19T07:06:02.823Z,998.41
2018-01-19T07:07:02.819Z,998.40
2018-01-19T07:08:02.822Z,998.45
2018-01-19T07:09:02.828Z,998.43
2018-01-19T07:10:02.830Z,998.43
2018-01-19T07:11:02.833Z,998.50
2018-01-19T07:12:02.832Z,998.50
2018-01-19T07:13:02.846Z,998.57
2018-01-19T07:14:02.848Z,998.54
2018-01-19T07:15:02.856Z,998.59
2018-01-19T07:16:02.857Z,998.53
2018-01-19T07:17:02.924Z,998.58
2018-01-19T07:18:02.874Z,998.61
2018-01-19T07:19:02.871Z,998.64
2018-01-19T07:20:02.874Z,998.66
2018-01-19T07:21:02.871Z,998.64
2018-01-19T07:22:02.871Z,998.63
2018-01-19T07:23:02.889Z,998.67
2018-01-19T07:24:02.889Z,998.70
2018-01-19T07:25:02.897Z,998.71
2018-01-19T07:26:02.901Z,998.73
2018-01-19T07:27:02.908Z,998.77
2018-01-19T07:28:02.921Z,998.83
2018-01-19T07:29:02.904Z,998.84
2018-01-19T07:30:02.912Z,998.80
2018-01-19T07:31:02.918Z,998.90
2018-01-19T07:32:03.619Z,998.85
2018-01-19T07:33:02.916Z,998.87
2018-01-19T07:34:02.943Z,998.89
2018-01-19T07:35:02.940Z,998.88
2018-01-19T07:36:02.956Z,999.05
2018-01-19T07:37:02.935Z,998.98
2018-01-19T07:38:02.941Z,999.00
2018-01-19T07:39:02.942Z,999.06
2018-01-19T07:40:02.951Z,999.04
2018-01-19T07:41:02.965Z,999.10
2018-01-19T07:42:02.966Z,999.13
2018-01-19T07:43:02.974Z,999.20
2018-01-19T07:44:02.963Z,999.13
2018-01-19T07:45:02.981Z,999.17
2018-01-19T07:46:02.983Z,999.22
2018-01-19T07:47:02.992Z,999.18
2018-01-19T07:48:02.986Z,999.23
2018-01-19T07:49:02.998Z,999.24
2018-01-19T07:50:02.998Z,999.24
2018-01-19T07:51:03.001Z,999.22
2018-01-19T07:52:03.011Z,999.23
2018-01-19T07:53:03.014Z,999.27
2018-01-19T07:54:03.049Z,999.29
2018-01-19T07:55:03.023Z,999.30
2018-01-19T07:56:03.027Z,999.33
2018-01-19T07:57:03.062Z,999.36
2018-01-19T07:58:03.055Z,999.39
2018-01-19T07:59:03.041Z,999.40
2018-01-19T08:00:03.069Z,999.40
2018-01-19T08:01:03.044Z,999.47
2018-01-19T08:02:03.052Z,999.41
2018-01-19T08:03:03.090Z,999.41
2018-01-19T08:04:03.076Z,999.49
2018-01-19T08:05:03.062Z,999.47
2018-01-19T08:06:03.076Z,999.50
2018-01-19T08:07:03.090Z,999.55
2018-01-19T08:08:03.066Z,999.52
2018-01-19T08:09:03.082Z,999.55
2018-01-19T08:10:03.083Z,999.56
2018-01-19T08:11:03.096Z,999.59
2018-01-19T08:12:03.083Z,999.58
2018-01-19T08:13:03.099Z,999.53
2018-01-19T08:14:03.103Z,999.61
2018-01-19T08:15:03.103Z,999.61
2018-01-19T08:16:03.147Z,999.67
2018-01-19T08:17:03.111Z,999.61
2018-01-19T08:18:03.154Z,999.71
2018-01-19T08:19:03.168Z,999.68
2018-01-19T08:20:03.222Z,999.67
2018-01-19T08:21:03.143Z,999.68
2018-01-19T08:22:03.149Z,999.71
2018-01-19T08:23:03.137Z,999.71
2018-01-19T08:24:03.150Z,999.75
2018-01-19T08:25:03.182Z,999.68
2018-01-19T08:26:03.146Z,999.73
2018-01-19T08:27:03.153Z,999.77
2018-01-19T08:28:03.256Z,999.72
2018-01-19T08:29:03.194Z,999.76
2018-01-19T08:30:03.174Z,999.77
2018-01-19T08:31:03.176Z,999.81
2018-01-19T08:32:03.181Z,999.81
2018-01-19T08:33:03.179Z,999.77
2018-01-19T08:34:03.180Z,999.86
2018-01-19T08:35:03.186Z,999.79
2018-01-19T08:36:03.233Z,999.77
2018-01-19T08:37:03.197Z,999.83
2018-01-19T08:38:03.191Z,999.83
2018-01-19T08:39:03.202Z,999.88
2018-01-19T08:40:03.203Z,999.85
2018-01-19T08:41:03.332Z,999.85
2018-01-19T08:42:03.226Z,999.88
2018-01-19T08:43:03.221Z,999.88
2018-01-19T08:44:03.420Z,999.86
2018-01-19T08:45:03.236Z,999.91
2018-01-19T08:46:03.286Z,999.94
2018-01-19T08:47:03.368Z,999.92
2018-01-19T08:48:03.546Z,999.93
2018-01-19T08:49:03.550Z,999.95
2018-01-19T08:50:03.550Z,999.97
2018-01-19T08:51:05.382Z,999.97
2018-01-19T08:53:03.265Z,1000.02
2018-01-19T08:54:03.279Z,1000.08
2018-01-19T08:55:03.317Z,1000.05
2018-01-19T08:56:03.302Z,1000.03
2018-01-19T08:57:03.290Z,1000.07
2018-01-19T08:58:03.287Z,1000.06
2018-01-19T08:59:03.301Z,1000.07
2018-01-19T09:01:19.657Z,999.94
2018-01-19T09:02:27.128Z,1000.14
2018-01-19T09:22:07.424Z,1000.33
2018-01-19T09:23:07.392Z,1000.40
2018-01-19T09:24:07.397Z,1000.37
2018-01-19T09:25:07.428Z,1000.38
2018-01-19T09:26:07.425Z,1000.41
2018-01-19T09:27:07.416Z,1000.43
2018-01-19T09:28:07.458Z,1000.44
2018-01-19T09:29:07.458Z,1000.44
2018-01-19T09:30:07.428Z,1000.58
2018-01-19T09:31:07.441Z,1000.51
2018-01-19T09:32:07.434Z,1000.55
2018-01-19T09:33:07.570Z,1000.53
2018-01-19T09:34:07.443Z,1000.50
2018-01-19T09:35:07.458Z,1000.54
2018-01-19T09:36:07.451Z,1000.57
2018-01-19T09:37:07.470Z,1000.61
2018-01-19T09:38:07.465Z,1000.62
2018-01-19T09:39:07.514Z,1000.64
2018-01-19T09:40:07.482Z,1000.60
2018-01-19T09:41:07.497Z,1000.61
2018-01-19T09:42:07.494Z,1000.64
2018-01-19T09:43:07.506Z,1000.59
2018-01-19T09:44:07.512Z,1000.68
2018-01-19T09:45:07.510Z,1000.62
2018-01-19T09:46:07.520Z,1000.64
2018-01-19T09:47:07.543Z,1000.69
2018-01-19T09:48:07.579Z,1000.67
2018-01-19T09:49:07.542Z,1000.76
2018-01-19T09:50:07.528Z,1000.77
2018-01-19T09:51:07.528Z,1000.81
2018-01-19T09:52:07.556Z,1000.76
2018-01-19T09:53:07.576Z,1000.87
2018-01-19T09:54:07.548Z,1000.83
2018-01-19T09:55:07.544Z,1000.77
2018-01-19T09:56:07.557Z,1000.81
2018-01-19T09:57:07.557Z,1000.85
2018-01-19T09:58:07.575Z,1000.85
2018-01-19T09:59:07.587Z,1000.82
2018-01-19T10:00:07.572Z,1000.83
2018-01-19T10:01:07.575Z,1000.87
2018-01-19T10:02:07.585Z,1000.91
2018-01-19T10:03:07.607Z,1000.90
2018-01-19T10:04:07.614Z,1000.84
2018-01-19T10:05:07.596Z,1000.89
2018-01-19T10:06:07.628Z,1000.90
2018-01-19T10:07:07.636Z,1000.91
2018-01-19T10:08:07.790Z,1000.94
2018-01-19T10:09:07.620Z,1000.95
2018-01-19T10:10:07.631Z,1000.87
2018-01-19T10:11:07.690Z,1000.96
2018-01-19T10:12:07.628Z,1000.90
2018-01-19T10:13:07.642Z,1000.99
2018-01-19T10:14:07.660Z,1001.02
2018-01-19T10:15:07.661Z,1000.99
2018-01-19T10:16:07.667Z,1001.01
2018-01-19T10:17:07.684Z,1001.04
2018-01-19T10:18:07.678Z,1001.07
2018-01-19T10:19:07.662Z,1001.03
2018-01-19T10:20:07.692Z,1001.05
2018-01-19T10:21:07.726Z,1001.04
2018-01-19T10:22:07.689Z,1001.08
2018-01-19T10:23:07.699Z,1001.04
2018-01-19T10:24:07.698Z,1000.95
2018-01-19T10:25:07.806Z,1001.03
2018-01-19T10:26:07.718Z,1000.98
2018-01-19T10:27:07.716Z,1001.03
2018-01-19T10:28:07.757Z,1001.06
2018-01-19T10:29:07.738Z,1001.03
2018-01-19T10:30:07.757Z,1001.02
2018-01-19T10:31:07.749Z,1001.02
2018-01-19T10:32:07.747Z,1001.07
2018-01-19T10:33:07.758Z,1001.14
2018-01-19T10:34:07.745Z,1001.15
2018-01-19T10:35:07.771Z,1001.08
2018-01-19T10:36:07.779Z,1001.11
2018-01-19T10:37:07.824Z,1001.21
2018-01-19T10:38:07.828Z,1001.14
2018-01-19T10:39:07.795Z,1001.15
2018-01-19T10:40:07.792Z,1001.08
2018-01-19T10:41:07.790Z,1001.13
2018-01-19T10:42:07.802Z,1001.15
2018-01-19T10:43:07.812Z,1001.17
2018-01-19T10:44:07.894Z,1001.17
2018-01-19T10:45:07.979Z,1001.19
2018-01-19T10:46:07.959Z,1001.19
2018-01-19T10:47:07.837Z,1001.13
2018-01-19T10:48:07.879Z,1001.11
2018-01-19T10:49:07.856Z,1001.10
2018-01-19T10:50:07.873Z,1001.13
2018-01-19T10:51:07.853Z,1001.06
2018-01-19T10:52:07.851Z,1001.14
2018-01-19T10:53:07.914Z,1001.14
2018-01-19T10:54:07.872Z,1001.18
2018-01-19T10:55:07.877Z,1001.15
2018-01-19T10:56:07.892Z,1001.21
2018-01-19T10:57:07.935Z,1001.18
2018-01-19T10:58:07.884Z,1001.20
2018-01-19T10:59:08.630Z,1001.22
2018-01-19T11:00:07.920Z,1001.20
2018-01-19T11:01:07.917Z,1001.22
2018-01-19T11:02:07.939Z,1001.27
2018-01-19T11:03:07.918Z,1001.18
2018-01-19T11:04:07.930Z,1001.12
2018-01-19T11:05:07.928Z,1001.14
2018-01-19T11:06:07.945Z,1001.09
2018-01-19T11:07:07.951Z,1001.16
2018-01-19T11:08:07.954Z,1001.13
2018-01-19T11:09:07.994Z,1001.15
2018-01-19T11:10:08.404Z,1001.19
2018-01-19T11:11:08.054Z,1001.27
2018-01-19T11:12:08.019Z,1001.14
2018-01-19T11:13:07.978Z,1001.16
2018-01-19T11:14:07.991Z,1001.14
2018-01-19T11:15:08.017Z,1001.11
2018-01-19T11:16:08.005Z,1001.17
2018-01-19T11:17:08.015Z,1001.12
2018-01-19T11:18:08.024Z,1001.08
2018-01-19T11:19:08.035Z,1001.05
2018-01-19T11:20:08.039Z,1001.08
2018-01-19T11:21:08.032Z,1001.09
2018-01-19T11:22:08.119Z,1001.07
2018-01-19T11:23:08.058Z,1001.17
2018-01-19T11:24:08.053Z,1001.11
2018-01-19T11:25:08.064Z,1001.21
2018-01-19T11:26:08.067Z,1001.11
2018-01-19T11:27:08.104Z,1001.04
2018-01-19T11:28:08.103Z,1001.03
2018-01-19T11:29:08.093Z,1001.07
2018-01-19T11:30:08.114Z,1001.05
2018-01-19T11:31:08.114Z,1001.01
2018-01-19T11:32:08.117Z,1000.98
2018-01-19T11:33:08.113Z,1000.95
2018-01-19T11:34:08.124Z,1000.93
2018-01-19T11:35:08.151Z,1000.93
2018-01-19T11:36:08.139Z,1000.88
2018-01-19T11:37:08.137Z,1000.93
2018-01-19T11:38:08.149Z,1000.91
2018-01-19T11:39:08.152Z,1000.91
2018-01-19T11:40:08.158Z,1000.94
2018-01-19T11:41:08.180Z,1000.95
2018-01-19T11:42:08.167Z,1000.88
2018-01-19T11:43:08.196Z,1000.88
2018-01-19T11:44:08.229Z,1000.94
2018-01-19T11:45:08.292Z,1000.89
2018-01-19T11:46:08.213Z,1000.89
2018-01-19T11:47:08.271Z,1000.96
2018-01-19T11:48:08.211Z,1000.95
2018-01-19T11:49:08.240Z,1001.00
2018-01-19T11:50:08.234Z,1000.94
2018-01-19T11:51:08.223Z,1000.94
2018-01-19T11:52:08.240Z,1001.01
2018-01-19T11:53:08.263Z,1001.00
2018-01-19T11:54:08.297Z,1000.95
2018-01-19T11:55:08.256Z,1001.06
2018-01-19T11:56:08.269Z,1000.99
2018-01-19T11:57:08.277Z,1000.97
2018-01-19T11:58:08.284Z,1001.02
2018-01-19T11:59:08.378Z,1001.02
2018-01-19T12:00:08.308Z,1000.99
2018-01-19T12:01:08.298Z,1001.01
2018-01-19T12:02:08.338Z,1000.98
2018-01-19T12:03:08.363Z,1000.99
2018-01-19T12:04:08.336Z,1000.94
2018-01-19T12:05:08.332Z,1000.96
2018-01-19T12:06:08.345Z,1000.90
2018-01-19T12:07:08.343Z,1000.91
2018-01-19T12:08:08.365Z,1000.94
2018-01-19T12:09:08.391Z,1000.94
2018-01-19T12:10:08.419Z,1000.97
2018-01-19T12:11:08.369Z,1001.01
2018-01-19T12:12:08.468Z,1001.01
2018-01-19T12:13:08.492Z,1000.94
2018-01-19T12:14:08.397Z,1000.98
2018-01-19T12:15:08.396Z,1000.94
2018-01-19T12:16:08.418Z,1001.01
2018-01-19T12:17:08.445Z,1000.97
2018-01-19T12:18:08.424Z,1000.98
2018-01-19T12:19:08.424Z,1000.99
2018-01-19T12:20:08.441Z,1000.89
2018-01-19T12:21:08.444Z,1001.01
2018-01-19T12:22:08.638Z,1000.89
2018-01-19T12:23:08.455Z,1000.91
2018-01-19T12:24:08.453Z,1000.91
2018-01-19T12:25:08.462Z,1000.89
2018-01-19T12:26:08.484Z,1000.88
2018-01-19T12:27:08.481Z,1000.84
2018-01-19T12:28:08.517Z,1000.85
2018-01-19T12:29:08.483Z,1000.92
2018-01-19T12:30:08.503Z,1000.90
2018-01-19T12:31:08.504Z,1000.92
2018-01-19T12:32:08.548Z,1000.96
2018-01-19T12:33:08.511Z,1000.95
2018-01-19T12:34:08.514Z,1000.96
2018-01-19T12:35:08.520Z,1000.99
2018-01-19T12:36:08.521Z,1000.94
2018-01-19T12:37:08.538Z,1000.97
2018-01-19T12:38:08.541Z,1000.99
2018-01-19T12:39:08.540Z,1000.95
2018-01-19T12:40:08.576Z,1000.90
2018-01-19T12:41:08.679Z,1000.94
2018-01-19T12:42:08.568Z,1000.85